Time;durP1;ratioP1;P1;durP2;ratioP2;P2;SDS_P1;SDS_P2;PMS_P1;PMS_P2;Temp;Humidity;BMP_temperature;BMP_pressure;BME280_temperature;BME280_humidity;BME280_pressure;Samples;Min_cycle;Max_cycle;Signal;HPM_P1;HPM_P2
2021/04/09 00:01:22;;;;;;;9.10;2.80;;;2.00;64.60;;;;;;4957086;28;20480;-82
2021/04/09 00:03:49;;;;;;;16.00;4.67;;;2.10;63.40;;;;;;4957165;28;20940;-82
2021/04/09 00:06:16;;;;;;;7.97;2.37;;;2.20;63.80;;;;;;4955929;28;20543;-82
2021/04/09 00:08:43;;;;;;;14.43;6.13;;;2.20;62.60;;;;;;4957180;28;20460;-82
2021/04/09 00:11:09;;;;;;;12.80;4.20;;;2.20;61.50;;;;;;4956985;28;20944;-82
2021/04/09 00:13:35;;;;;;;20.35;3.30;;;2.20;61.40;;;;;;4957110;28;20468;-82
2021/04/09 00:16:03;;;;;;;7.60;2.30;;;2.30;58.80;;;;;;4956962;28;20600;-82
2021/04/09 00:18:30;;;;;;;7.20;2.33;;;2.40;57.10;;;;;;4957040;28;20470;-82
2021/04/09 00:20:58;;;;;;;7.10;2.90;;;2.40;55.70;;;;;;4955812;28;20936;-82
2021/04/09 00:23:26;;;;;;;9.73;3.53;;;2.40;56.60;;;;;;4956681;28;20587;-82
2021/04/09 00:25:52;;;;;;;7.07;2.23;;;2.50;55.60;;;;;;4956828;28;20959;-82
2021/04/09 00:28:19;;;;;;;7.73;2.33;;;2.60;55.60;;;;;;4956797;28;20464;-82
2021/04/09 00:30:46;;;;;;;6.70;2.20;;;2.60;55.60;;;;;;4956678;28;20477;-82
2021/04/09 00:33:15;;;;;;;7.17;2.30;;;2.50;55.50;;;;;;4956385;28;20883;-82
2021/04/09 00:35:45;;;;;;;7.83;2.70;;;2.50;55.50;;;;;;4955343;28;20498;-82
2021/04/09 00:38:13;;;;;;;12.33;3.70;;;2.50;57.20;;;;;;4956462;28;20456;-82
2021/04/09 00:40:40;;;;;;;10.00;5.47;;;2.60;56.60;;;;;;4956441;28;20471;-82
2021/04/09 00:43:07;;;;;;;8.10;2.87;;;2.60;55.60;;;;;;4956371;28;20476;-82
2021/04/09 00:45:34;;;;;;;10.97;3.37;;;2.50;55.50;;;;;;4938675;29;20460;-82
2021/04/09 00:48:03;;;;;;;7.37;2.30;;;2.50;55.20;;;;;;4956565;28;20460;-81
2021/04/09 00:50:31;;;;;;;10.77;4.70;;;2.50;55.30;;;;;;4956126;28;20451;-81
2021/04/09 00:53:00;;;;;;;7.53;2.67;;;2.40;53.40;;;;;;4955415;28;20479;-82
2021/04/09 00:55:28;;;;;;;7.05;2.05;;;2.50;53.40;;;;;;4956423;28;20487;-81
2021/04/09 01:00:37;;;;;;;20.83;3.77;;;2.40;55.00;;;;;;5211388;23;20497;-80
2021/04/09 01:03:04;;;;;;;9.20;3.20;;;2.50;53.40;;;;;;4936784;29;20835;-80
2021/04/09 01:05:32;;;;;;;7.80;3.33;;;2.40;54.70;;;;;;4936792;29;20461;-80
2021/04/09 01:08:01;;;;;;;6.30;1.80;;;2.30;55.30;;;;;;4936008;29;20457;-80
2021/04/09 01:10:29;;;;;;;7.80;2.03;;;2.30;56.20;;;;;;4936776;29;20463;-80
2021/04/09 01:12:56;;;;;;;7.27;2.80;;;2.30;55.40;;;;;;4936704;29;20879;-80
2021/04/09 01:15:23;;;;;;;8.80;3.80;;;2.20;55.30;;;;;;4936465;29;20983;-80
2021/04/09 01:17:58;;;;;;;6.10;1.40;;;2.30;55.30;;;;;;4936616;29;20456;-80
2021/04/09 01:20:54;;;;;;;6.10;1.40;;;2.30;55.30;;;;;;4936590;29;21016;-80
2021/04/09 01:23:35;;;;;;;6.40;1.80;;;2.20;56.70;;;;;;4936625;29;20480;-80
2021/04/09 01:26:59;;;;;;;8.67;3.10;;;2.20;56.20;;;;;;4936462;29;20504;-80
2021/04/09 01:29:58;;;;;;;7.07;2.30;;;2.10;57.70;;;;;;4936537;29;20853;-83
2021/04/09 01:32:26;;;;;;;7.13;2.17;;;2.20;57.50;;;;;;4936506;29;20961;-83
2021/04/09 01:34:56;;;;;;;11.20;2.50;;;2.40;55.40;;;;;;4937221;29;20460;-83
2021/04/09 01:37:27;;;;;;;6.40;2.23;;;2.40;55.40;;;;;;4935481;29;20984;-82
2021/04/09 01:40:02;;;;;;;7.53;2.42;;;2.40;55.40;;;;;;4936269;29;20461;-83
2021/04/09 01:42:31;;;;;;;6.30;1.60;;;2.30;55.30;;;;;;4936129;29;20240;-83
2021/04/09 01:44:59;;;;;;;6.40;2.13;;;2.30;55.50;;;;;;4935685;29;20489;-83
2021/04/09 01:47:28;;;;;;;9.63;3.13;;;2.30;57.30;;;;;;4936283;29;20819;-83
2021/04/09 01:49:56;;;;;;;6.80;1.57;;;2.20;57.50;;;;;;4936142;29;20460;-83
2021/04/09 01:55:08;;;;;;;6.93;2.13;;;2.50;55.50;;;;;;5071363;23;20495;-82
2021/04/09 01:57:37;;;;;;;10.80;2.50;;;2.40;55.40;;;;;;4955101;28;20455;-82
2021/04/09 02:00:05;;;;;;;7.30;3.40;;;2.40;55.60;;;;;;4955290;29;21132;-82
2021/04/09 02:02:33;;;;;;;6.50;1.63;;;2.50;55.50;;;;;;4955254;28;20459;-82
2021/04/09 02:05:01;;;;;;;6.80;1.97;;;2.50;56.50;;;;;;4955079;28;20483;-82
2021/04/09 02:07:31;;;;;;;7.83;3.93;;;2.50;57.20;;;;;;4953612;29;20499;-82
2021/04/09 02:09:58;;;;;;;8.00;3.27;;;2.50;56.50;;;;;;4955012;28;20507;-82
2021/04/09 02:12:26;;;;;;;9.97;2.47;;;2.60;56.40;;;;;;4954966;28;20460;-82
2021/04/09 02:14:56;;;;;;;8.43;3.90;;;2.60;58.40;;;;;;4955310;29;20873;-82
2021/04/09 02:17:23;;;;;;;7.33;2.63;;;2.40;59.90;;;;;;4954907;29;20459;-82
2021/04/09 02:19:51;;;;;;;7.33;2.33;;;2.40;60.70;;;;;;4955130;29;20483;-82
2021/04/09 02:22:18;;;;;;;11.67;3.23;;;2.50;61.30;;;;;;4953816;28;20497;-82
2021/04/09 02:24:47;;;;;;;7.20;2.20;;;2.50;61.40;;;;;;4957520;29;20491;-82
2021/04/09 02:27:15;;;;;;;9.03;5.13;;;2.40;62.90;;;;;;4954790;29;20448;-82
2021/04/09 02:29:43;;;;;;;7.17;2.50;;;2.40;63.30;;;;;;4954979;29;20471;-81
2021/04/09 02:32:11;;;;;;;10.07;3.33;;;2.50;63.80;;;;;;4954825;29;21185;-82
2021/04/09 02:37:14;;;;;;;6.30;1.30;;;2.50;64.10;;;;;;5043051;23;20496;-81
2021/04/09 02:39:46;;;;;;;7.57;2.70;;;2.60;63.80;;;;;;4935841;29;20460;-81
2021/04/09 02:42:13;;;;;;;8.63;3.27;;;2.70;62.20;;;;;;4935617;29;20464;-81
2021/04/09 02:44:39;;;;;;;8.23;2.53;;;2.60;61.50;;;;;;4935373;29;20988;-81
2021/04/09 02:47:17;;;;;;;7.10;3.17;;;2.70;60.50;;;;;;4935269;29;20453;-81
2021/04/09 02:50:02;;;;;;;8.50;2.20;;;2.70;61.10;;;;;;4935540;29;20274;-82
2021/04/09 02:52:40;;;;;;;7.60;2.27;;;2.50;63.60;;;;;;4934065;29;20476;-81
2021/04/09 02:55:13;;;;;;;8.30;2.83;;;2.40;62.40;;;;;;4903422;29;20452;-81
2021/04/09 02:57:42;;;;;;;15.60;3.20;;;2.40;61.70;;;;;;4938969;29;20459;-81
2021/04/09 03:00:10;;;;;;;7.33;2.60;;;2.40;61.60;;;;;;4939144;29;20457;-80
2021/04/09 03:02:39;;;;;;;8.30;3.00;;;2.50;59.30;;;;;;4936570;29;20456;-81
2021/04/09 03:05:07;;;;;;;11.47;4.20;;;2.60;56.20;;;;;;4939043;29;20499;-81
2021/04/09 03:07:39;;;;;;;18.60;3.43;;;2.50;56.30;;;;;;4937923;29;20834;-81
2021/04/09 03:10:08;;;;;;;9.27;3.17;;;2.40;56.60;;;;;;4939104;29;20803;-81
2021/04/09 03:12:34;;;;;;;21.80;3.23;;;2.40;56.70;;;;;;4938977;29;20453;-81
2021/04/09 03:15:02;;;;;;;9.07;3.33;;;2.30;58.40;;;;;;4939112;29;20453;-81
2021/04/09 03:17:33;;;;;;;8.50;2.93;;;2.30;59.50;;;;;;4938811;29;20453;-81
2021/04/09 03:19:59;;;;;;;6.37;2.23;;;2.30;59.20;;;;;;4938775;29;20862;-81
2021/04/09 03:22:26;;;;;;;9.07;2.70;;;2.30;58.40;;;;;;4937762;29;20448;-80
2021/04/09 03:24:53;;;;;;;10.27;4.10;;;2.20;59.60;;;;;;4938680;29;20535;-81
2021/04/09 03:27:19;;;;;;;13.57;4.73;;;2.20;60.60;;;;;;4938574;29;20465;-81
2021/04/09 03:29:46;;;;;;;13.17;4.03;;;2.40;58.80;;;;;;4938662;29;20456;-81
2021/04/09 03:32:13;;;;;;;8.30;2.47;;;2.40;58.20;;;;;;4938512;29;20465;-81
2021/04/09 03:37:21;;;;;;;6.40;2.10;;;2.50;56.70;;;;;;5070586;23;20491;-82
2021/04/09 03:39:48;;;;;;;6.97;2.23;;;2.50;56.70;;;;;;4957649;29;20456;-82
2021/04/09 03:42:15;;;;;;;17.63;4.23;;;2.40;55.70;;;;;;4957644;29;20483;-82
2021/04/09 03:44:41;;;;;;;7.37;2.70;;;2.50;55.50;;;;;;4957635;28;20582;-82
2021/04/09 03:47:10;;;;;;;6.90;2.50;;;2.60;54.10;;;;;;4957526;29;20467;-82
2021/04/09 03:49:36;;;;;;;8.30;2.50;;;2.60;54.80;;;;;;4957337;28;20522;-82
2021/04/09 03:52:03;;;;;;;7.57;3.43;;;2.60;55.30;;;;;;4956092;29;20500;-82
2021/04/09 03:54:30;;;;;;;7.23;2.63;;;2.60;55.60;;;;;;4957425;28;20888;-82
2021/04/09 03:56:56;;;;;;;7.17;2.10;;;2.60;54.80;;;;;;4957290;29;20459;-82
2021/04/09 03:59:23;;;;;;;9.20;1.90;;;2.60;55.50;;;;;;4957288;28;20904;-82
2021/04/09 04:01:50;;;;;;;7.50;2.97;;;2.70;54.40;;;;;;4957214;28;20460;-81
2021/04/09 04:04:16;;;;;;;8.77;3.50;;;2.60;53.90;;;;;;4956782;29;20491;-82
2021/04/09 04:06:43;;;;;;;9.83;3.70;;;2.60;55.50;;;;;;4955293;28;20456;-82
2021/04/09 04:09:09;;;;;;;8.50;3.47;;;2.60;55.60;;;;;;4956919;28;20463;-82
2021/04/09 04:11:36;;;;;;;9.53;3.97;;;2.50;56.40;;;;;;4957018;29;20456;-82
2021/04/09 04:14:02;;;;;;;7.90;3.90;;;2.40;57.80;;;;;;4956988;28;20503;-82
2021/04/09 04:16:29;;;;;;;13.87;5.47;;;2.30;58.10;;;;;;4957074;28;20670;-82
2021/04/09 04:18:56;;;;;;;8.33;4.40;;;2.30;58.60;;;;;;4956809;29;20455;-81
2021/04/09 04:21:23;;;;;;;9.83;4.90;;;2.20;60.00;;;;;;4955634;29;20483;-82
2021/04/09 04:23:51;;;;;;;10.93;4.63;;;2.20;59.60;;;;;;4956675;29;21042;-82
2021/04/09 04:26:24;;;;;;;12.17;4.13;;;2.20;60.30;;;;;;4956929;29;20507;-83
2021/04/09 04:28:54;;;;;;;8.23;3.90;;;2.10;60.20;;;;;;4957012;28;20456;-82
2021/04/09 04:31:20;;;;;;;10.83;5.13;;;2.30;60.40;;;;;;4956740;29;20470;-82
2021/04/09 04:33:52;;;;;;;9.40;4.13;;;2.10;61.30;;;;;;4956662;28;20466;-81
2021/04/09 04:36:19;;;;;;;13.47;4.47;;;2.10;61.90;;;;;;4955196;29;20487;-82
2021/04/09 04:38:46;;;;;;;10.40;4.03;;;2.00;63.30;;;;;;4956597;29;20470;-82
2021/04/09 04:43:47;;;;;;;16.03;4.40;;;2.00;64.20;;;;;;4952689;23;20594;-81
2021/04/09 04:46:14;;;;;;;8.33;5.07;;;2.00;64.90;;;;;;4956601;29;20464;-81
2021/04/09 04:48:40;;;;;;;9.43;3.57;;;2.00;64.40;;;;;;5169666;23;20563;-81
2021/04/09 04:51:08;;;;;;;11.00;4.50;;;2.00;65.20;;;;;;4935738;29;20838;-81
2021/04/09 04:53:35;;;;;;;11.20;5.63;;;1.90;65.10;;;;;;4937087;29;20457;-81
2021/04/09 04:56:01;;;;;;;10.70;5.00;;;1.90;66.00;;;;;;4937077;29;20632;-80
2021/04/09 04:58:28;;;;;;;23.23;5.10;;;1.90;66.00;;;;;;4937016;29;20557;-80
2021/04/09 05:00:54;;;;;;;12.33;5.53;;;1.90;66.60;;;;;;4937125;29;20957;-81
2021/04/09 05:03:21;;;;;;;15.80;5.80;;;1.90;66.90;;;;;;4937038;29;20556;-80
2021/04/09 05:06:03;;;;;;;8.80;5.33;;;1.80;68.30;;;;;;5097913;23;20477;-81
2021/04/09 05:08:32;;;;;;;20.00;6.07;;;1.80;71.00;;;;;;4936349;29;20457;-82
2021/04/09 05:10:59;;;;;;;15.10;6.77;;;1.80;72.20;;;;;;4936766;29;20812;-81
2021/04/09 05:13:27;;;;;;;11.43;6.00;;;1.90;73.30;;;;;;4937159;29;20812;-81
2021/04/09 05:15:54;;;;;;;7.80;5.10;;;2.10;71.20;;;;;;4938301;29;20964;-81
2021/04/09 05:18:20;;;;;;;9.70;5.67;;;2.40;69.00;;;;;;4936477;29;20979;-81
2021/04/09 05:20:51;;;;;;;7.27;3.63;;;2.40;67.30;;;;;;4935120;29;20465;-82
2021/04/09 05:23:35;;;;;;;8.00;3.10;;;2.50;65.30;;;;;;4936489;29;20485;-82
2021/04/09 05:26:18;;;;;;;10.17;5.57;;;2.70;61.90;;;;;;4936418;29;20975;-83
2021/04/09 05:28:46;;;;;;;8.53;3.67;;;2.80;62.00;;;;;;4935991;29;20461;-83
2021/04/09 05:31:15;;;;;;;14.27;3.87;;;2.80;61.10;;;;;;4936331;29;21015;-82
2021/04/09 05:33:41;;;;;;;18.05;6.15;;;2.90;61.20;;;;;;4936546;29;20800;-82
2021/04/09 05:36:25;;;;;;;12.20;6.10;;;2.90;61.70;;;;;;4934597;29;20657;-82
2021/04/09 05:39:02;;;;;;;;;;;;;;;;;;;;;
2021/04/09 05:41:31;;;;;;;6.87;3.00;;;3.00;60.70;;;;;;4936037;29;20529;-82
2021/04/09 05:47:08;;;;;;;12.80;4.80;;;3.10;60.70;;;;;;4936138;29;20560;-82
2021/04/09 05:49:37;;;;;;;16.20;6.40;;;3.20;61.70;;;;;;4936103;29;20481;-82
2021/04/09 05:52:14;;;;;;;;;;;;;;;;;;;;;
2021/04/09 05:54:42;;;;;;;16.73;7.50;;;3.30;60.80;;;;;;4934282;29;20459;-82
2021/04/09 05:57:12;;;;;;;7.60;3.33;;;3.50;58.00;;;;;;4935852;29;20818;-81
2021/04/09 05:59:38;;;;;;;8.27;4.37;;;3.60;59.30;;;;;;4936073;29;20460;-82
2021/04/09 06:02:05;;;;;;;15.80;5.27;;;3.70;61.30;;;;;;4935951;29;20453;-82
2021/04/09 06:04:32;;;;;;;12.53;4.57;;;3.80;59.20;;;;;;4937075;29;20848;-83
2021/04/09 06:06:58;;;;;;;13.83;5.63;;;4.10;54.20;;;;;;4934644;29;20833;-83
2021/04/09 06:09:24;;;;;;;9.90;4.03;;;4.30;50.30;;;;;;4935860;29;20457;-83
2021/04/09 06:11:52;;;;;;;13.97;5.63;;;4.50;44.50;;;;;;4935820;29;20461;-83
2021/04/09 06:14:19;;;;;;;14.17;5.57;;;4.80;42.90;;;;;;4935965;29;20461;-83
2021/04/09 06:16:49;;;;;;;11.50;4.63;;;4.90;40.90;;;;;;4928405;29;20460;-83
2021/04/09 06:19:32;;;;;;;8.90;3.57;;;5.00;40.50;;;;;;4953948;29;20456;-82
2021/04/09 06:22:25;;;;;;;12.63;6.17;;;5.20;40.10;;;;;;4946560;29;20460;-82
2021/04/09 06:25:04;;;;;;;9.37;3.33;;;5.40;39.30;;;;;;4838267;29;20525;-83
2021/04/09 06:27:45;;;;;;;11.40;5.00;;;5.50;39.20;;;;;;4838302;29;20453;-82
2021/04/09 06:30:20;;;;;;;17.00;7.00;;;5.50;47.10;;;;;;4842212;29;20465;-82
2021/04/09 06:32:46;;;;;;;14.87;4.90;;;5.50;48.70;;;;;;4844980;29;20456;-82
2021/04/09 06:35:15;;;;;;;14.13;5.30;;;5.50;48.50;;;;;;4877599;29;20512;-82
2021/04/09 06:37:42;;;;;;;9.97;3.80;;;5.50;47.00;;;;;;4939602;29;20496;-82
2021/04/09 06:40:10;;;;;;;12.03;5.77;;;5.60;49.60;;;;;;4940762;29;20815;-82
2021/04/09 06:42:49;;;;;;;;;;;;;;;;;;;;;
2021/04/09 06:45:16;;;;;;;13.33;5.93;;;5.60;48.90;;;;;;4939923;29;20498;-82
2021/04/09 06:47:48;;;;;;;18.77;5.30;;;5.70;48.90;;;;;;4940245;29;20551;-82
2021/04/09 06:50:17;;;;;;;12.87;5.57;;;5.80;47.70;;;;;;4940564;29;20519;-82
2021/04/09 06:52:50;;;;;;;16.27;5.77;;;5.90;48.00;;;;;;4940733;29;20461;-82
2021/04/09 06:55:19;;;;;;;19.57;6.77;;;6.10;45.90;;;;;;4941724;29;20483;-78
2021/04/09 06:57:48;;;;;;;14.73;4.17;;;6.20;44.70;;;;;;4941812;29;20475;-83
2021/04/09 07:00:21;;;;;;;13.00;3.90;;;6.40;43.10;;;;;;4941656;29;20460;-82
2021/04/09 07:03:07;;;;;;;12.57;4.47;;;6.60;39.10;;;;;;4941573;29;20468;-83
2021/04/09 07:05:50;;;;;;;17.13;5.57;;;6.80;39.20;;;;;;4940218;29;20959;-83
2021/04/09 07:08:20;;;;;;;12.70;5.10;;;7.00;37.00;;;;;;4941711;29;20202;-82
2021/04/09 07:10:52;;;;;;;12.63;5.00;;;7.20;34.70;;;;;;4941662;29;20461;-83
2021/04/09 07:13:20;;;;;;;11.93;4.63;;;7.50;33.40;;;;;;4941605;29;20457;-82
2021/04/09 07:15:53;;;;;;;11.70;4.40;;;7.60;33.90;;;;;;4941557;29;20488;-82
2021/04/09 07:18:19;;;;;;;24.77;4.50;;;7.80;32.70;;;;;;4941437;29;20445;-83
2021/04/09 07:20:49;;;;;;;17.50;6.40;;;8.10;32.50;;;;;;4940230;29;20463;-82
2021/04/09 07:23:17;;;;;;;11.83;3.70;;;8.30;29.50;;;;;;4941278;29;20467;-82
2021/04/09 07:28:16;;;;;;;12.30;3.87;;;8.40;15.70;;;;;;4959219;29;20488;-83
2021/04/09 07:30:49;;;;;;;13.83;2.83;;;8.40;15.40;;;;;;4960570;28;21028;-82
2021/04/09 07:33:17;;;;;;;10.63;2.50;;;8.50;14.30;;;;;;4960610;28;21013;-82
2021/04/09 07:35:50;;;;;;;14.17;4.13;;;8.50;14.10;;;;;;4959590;29;20809;-82
2021/04/09 07:38:28;;;;;;;15.53;5.20;;;8.80;15.10;;;;;;4960681;29;20495;-82
2021/04/09 07:41:02;;;;;;;14.50;3.70;;;9.00;13.70;;;;;;4958779;28;20463;-82
2021/04/09 07:43:29;;;;;;;12.83;3.10;;;9.10;10.50;;;;;;4957381;29;20516;-83
2021/04/09 07:45:58;;;;;;;13.07;4.20;;;9.30;12.20;;;;;;4957644;28;20971;-83
2021/04/09 07:48:32;;;;;;;13.60;3.93;;;9.30;11.20;;;;;;4957438;29;20550;-82
2021/04/09 07:50:59;;;;;;;30.03;5.97;;;9.50;8.80;;;;;;4956446;29;20557;-82
2021/04/09 07:53:41;;;;;;;14.00;4.23;;;9.70;8.60;;;;;;4957421;29;20463;-82
2021/04/09 07:56:10;;;;;;;14.00;4.00;;;9.70;8.70;;;;;;4957397;28;20464;-82
2021/04/09 07:58:38;;;;;;;16.37;2.97;;;10.00;7.10;;;;;;4957382;28;20521;-83
2021/04/09 08:01:19;;;;;;;15.10;4.03;;;10.00;6.40;;;;;;4957283;29;20456;-82
2021/04/09 08:03:45;;;;;;;14.23;3.80;;;10.20;5.20;;;;;;4957161;29;20515;-82
2021/04/09 08:06:13;;;;;;;16.47;4.30;;;10.40;5.30;;;;;;4955788;29;20480;-83
2021/04/09 08:08:57;;;;;;;17.97;3.90;;;10.70;3.50;;;;;;4957081;28;20471;-83
2021/04/09 08:11:29;;;;;;;17.57;4.23;;;11.00;4.00;;;;;;4957161;28;20494;-83
2021/04/09 08:14:08;;;;;;;17.63;4.57;;;11.10;1.50;;;;;;4957237;28;20461;-83
2021/04/09 08:16:39;;;;;;;21.27;3.53;;;11.30;1.00;;;;;;4957267;28;20545;-83
2021/04/09 08:19:10;;;;;;;16.93;3.87;;;11.20;1.00;;;;;;4956912;28;20452;-83
2021/04/09 08:21:38;;;;;;;16.17;3.30;;;11.40;1.00;;;;;;4955638;28;20533;-83
2021/04/09 08:24:06;;;;;;;26.83;3.67;;;11.60;1.00;;;;;;4956755;28;20544;-82
2021/04/09 08:26:35;;;;;;;20.13;3.90;;;11.80;1.00;;;;;;4956748;28;20493;-83
2021/04/09 08:29:03;;;;;;;19.07;3.13;;;11.90;1.00;;;;;;4956801;28;20456;-83
2021/04/09 08:31:30;;;;;;;20.13;3.87;;;12.10;1.00;;;;;;4956567;28;20459;-83
2021/04/09 08:33:59;;;;;;;27.13;3.73;;;12.30;1.00;;;;;;4956660;28;20463;-83
2021/04/09 08:36:26;;;;;;;21.30;3.33;;;12.50;1.00;;;;;;4955344;28;20487;-83
2021/04/09 08:38:53;;;;;;;23.30;4.20;;;12.80;1.00;;;;;;4956511;28;20550;-83
2021/04/09 08:41:22;;;;;;;26.27;4.93;;;12.80;1.00;;;;;;4956455;28;21057;-83
2021/04/09 08:43:49;;;;;;;25.57;4.47;;;13.30;1.00;;;;;;4956279;28;20530;-83
2021/04/09 08:46:15;;;;;;;30.53;4.43;;;13.20;1.00;;;;;;4956701;28;20868;-83
2021/04/09 08:48:43;;;;;;;27.30;3.63;;;13.90;1.00;;;;;;4956370;28;20494;-83
2021/04/09 08:51:12;;;;;;;29.27;4.50;;;13.80;1.00;;;;;;4955098;28;20470;-83
2021/04/09 08:53:39;;;;;;;27.87;5.23;;;14.20;1.00;;;;;;4956258;28;20523;-83
2021/04/09 08:56:15;;;;;;;29.27;3.60;;;13.90;1.00;;;;;;4956340;28;20466;-83
2021/04/09 08:58:49;;;;;;;47.07;3.83;;;14.00;1.00;;;;;;4956178;28;20470;-83
2021/04/09 09:01:17;;;;;;;25.73;3.30;;;14.20;1.00;;;;;;4956195;28;20518;-84
2021/04/09 09:03:43;;;;;;;28.17;4.20;;;14.00;1.00;;;;;;4956070;28;20483;-83
2021/04/09 09:06:11;;;;;;;26.13;3.93;;;13.90;1.00;;;;;;4954691;28;20475;-83
2021/04/09 09:09:00;;;;;;;30.30;3.90;;;13.70;1.00;;;;;;4956040;28;20459;-83
2021/04/09 09:11:56;;;;;;;30.97;4.83;;;13.90;1.00;;;;;;4956039;28;20456;-84
2021/04/09 09:14:38;;;;;;;28.23;4.17;;;13.90;1.00;;;;;;4956027;28;20464;-83
2021/04/09 09:17:39;;;;;;;33.57;4.90;;;13.70;1.00;;;;;;4954771;28;20516;-84
2021/04/09 09:20:23;;;;;;;25.67;4.30;;;13.50;1.00;;;;;;4955844;28;20455;-84
2021/04/09 09:23:18;;;;;;;31.73;5.10;;;13.70;1.00;;;;;;4954555;28;20547;-83
2021/04/09 09:25:53;;;;;;;27.50;3.90;;;14.10;1.00;;;;;;4955548;28;20553;-83
2021/04/09 09:28:30;;;;;;;30.23;4.17;;;14.40;1.00;;;;;;4955879;28;20479;-84
2021/04/09 09:30:57;;;;;;;30.40;5.07;;;14.40;1.00;;;;;;4955671;28;20451;-83
2021/04/09 09:33:29;;;;;;;36.20;4.20;;;14.50;1.00;;;;;;4955585;28;20551;-83
2021/04/09 09:36:09;;;;;;;31.97;4.23;;;14.60;1.00;;;;;;4954232;28;20544;-84
2021/04/09 09:38:54;;;;;;;31.07;4.83;;;14.40;1.00;;;;;;4955496;28;20459;-82
2021/04/09 09:41:38;;;;;;;28.77;4.50;;;14.80;1.00;;;;;;4955537;28;20462;-82
2021/04/09 09:44:27;;;;;;;29.00;4.53;;;15.10;1.00;;;;;;4955407;28;20495;-82
2021/04/09 09:47:02;;;;;;;30.33;4.70;;;15.40;1.00;;;;;;4955300;28;20459;-83
2021/04/09 09:49:45;;;;;;;33.97;5.03;;;15.70;1.00;;;;;;4953140;28;20479;-82
2021/04/09 09:52:25;;;;;;;31.90;4.27;;;15.70;1.00;;;;;;4952096;29;20518;-82
2021/04/09 09:55:16;;;;;;;34.03;4.83;;;15.60;1.00;;;;;;4953969;28;20483;-82
2021/04/09 09:57:48;;;;;;;32.50;5.20;;;15.10;1.00;;;;;;4954323;28;20459;-82
2021/04/09 10:00:30;;;;;;;35.37;5.90;;;14.80;1.00;;;;;;4953854;28;20474;-82
2021/04/09 10:03:28;;;;;;;29.47;5.07;;;14.70;1.00;;;;;;4953908;28;21007;-82
2021/04/09 10:06:00;;;;;;;28.97;4.40;;;14.60;1.00;;;;;;4892924;29;20494;-82
2021/04/09 10:08:35;;;;;;;33.63;5.33;;;14.70;1.00;;;;;;4942824;28;20456;-82
2021/04/09 10:11:09;;;;;;;27.50;4.33;;;15.20;1.00;;;;;;4955327;28;20455;-81
2021/04/09 10:13:37;;;;;;;31.73;4.30;;;14.80;1.00;;;;;;4955356;29;20467;-81
2021/04/09 10:16:13;;;;;;;28.23;3.97;;;14.80;1.00;;;;;;4954945;28;20471;-82
2021/04/09 10:18:40;;;;;;;31.33;4.70;;;14.80;1.00;;;;;;4955032;28;20471;-82
2021/04/09 10:21:16;;;;;;;29.33;4.10;;;14.40;1.00;;;;;;4953640;28;20464;-82
2021/04/09 10:23:43;;;;;;;29.77;4.17;;;14.30;1.00;;;;;;4954550;28;20452;-82
2021/04/09 10:26:11;;;;;;;27.57;4.00;;;14.30;1.00;;;;;;4954558;28;21017;-82
2021/04/09 10:28:41;;;;;;;30.30;3.93;;;14.20;1.00;;;;;;4955055;28;20452;-82
2021/04/09 10:31:12;;;;;;;26.77;3.90;;;14.30;1.00;;;;;;4954867;28;20543;-82
2021/04/09 10:33:40;;;;;;;27.30;3.87;;;15.00;1.00;;;;;;4954725;28;20459;-82
2021/04/09 10:36:20;;;;;;;27.53;3.90;;;15.10;1.00;;;;;;4953484;28;20462;-82
2021/04/09 10:38:57;;;;;;;28.67;4.37;;;15.30;1.00;;;;;;4954610;28;20865;-82
2021/04/09 10:41:46;;;;;;;30.03;4.43;;;15.50;1.00;;;;;;4954818;28;20463;-83
2021/04/09 10:44:17;;;;;;;28.90;4.03;;;15.50;1.00;;;;;;4954672;28;20496;-83
2021/04/09 10:46:46;;;;;;;29.83;4.63;;;16.00;1.00;;;;;;4954764;28;20878;-83
2021/04/09 10:49:18;;;;;;;32.80;4.60;;;15.60;1.00;;;;;;4954620;28;20456;-83
2021/04/09 10:51:47;;;;;;;36.70;4.93;;;15.60;1.00;;;;;;4953424;28;20460;-82
2021/04/09 10:54:37;;;;;;;36.13;4.77;;;15.70;1.00;;;;;;4954725;28;20556;-83
2021/04/09 10:57:08;;;;;;;37.53;4.97;;;15.00;1.00;;;;;;4950572;28;20467;-82
2021/04/09 10:59:37;;;;;;;29.17;4.20;;;14.80;1.00;;;;;;4954406;28;20451;-82
2021/04/09 11:02:05;;;;;;;31.10;4.40;;;14.80;1.00;;;;;;4954794;28;20464;-83
2021/04/09 11:04:36;;;;;;;33.30;5.40;;;14.90;1.00;;;;;;4954337;28;20495;-82
2021/04/09 11:07:04;;;;;;;37.10;4.67;;;15.10;1.00;;;;;;4953461;28;20826;-83
2021/04/09 11:09:47;;;;;;;28.97;4.67;;;15.10;1.00;;;;;;4954487;28;20463;-82
2021/04/09 11:12:19;;;;;;;34.20;3.63;;;15.80;1.00;;;;;;4954479;28;20463;-82
2021/04/09 11:14:46;;;;;;;29.03;3.30;;;16.80;1.00;;;;;;4954436;28;20475;-83
2021/04/09 11:17:22;;;;;;;30.77;3.37;;;16.20;1.00;;;;;;4957700;28;20470;-81
2021/04/09 11:19:54;;;;;;;30.07;3.87;;;16.10;1.00;;;;;;4957881;29;20455;-82
2021/04/09 11:22:22;;;;;;;30.80;3.60;;;16.10;1.00;;;;;;4956724;28;20464;-82
2021/04/09 11:24:59;;;;;;;30.40;3.70;;;16.50;1.00;;;;;;4957838;28;20574;-82
2021/04/09 11:27:40;;;;;;;;;;;;;;;;;;;;;
2021/04/09 11:30:14;;;;;;;31.37;3.27;;;16.50;1.00;;;;;;4953885;28;20471;-83
2021/04/09 11:32:48;;;;;;;31.53;2.83;;;16.90;1.00;;;;;;4957758;28;20455;-83
2021/04/09 11:35:20;;;;;;;32.57;2.50;;;16.70;1.00;;;;;;4957944;28;20472;-83
2021/04/09 11:37:52;;;;;;;32.20;3.47;;;17.20;1.00;;;;;;4956620;28;20460;-83
2021/04/09 11:40:35;;;;;;;41.37;3.73;;;15.80;1.00;;;;;;4957663;28;20478;-83
2021/04/09 11:43:13;;;;;;;;;;;;;;;;;;;;;
2021/04/09 11:45:48;;;;;;;30.10;3.50;;;16.20;1.00;;;;;;4957301;28;20868;-82
2021/04/09 11:48:26;;;;;;;53.27;4.63;;;15.90;1.00;;;;;;4957343;28;20864;-83
2021/04/09 11:51:15;;;;;;;34.57;4.60;;;15.50;1.00;;;;;;4956205;28;21055;-83
2021/04/09 11:53:57;;;;;;;27.70;3.03;;;15.50;1.00;;;;;;4957414;28;20451;-83
2021/04/09 11:56:42;;;;;;;28.27;3.13;;;15.40;1.00;;;;;;4957332;28;20518;-83
2021/04/09 11:59:14;;;;;;;26.80;3.27;;;15.40;1.00;;;;;;4957525;28;20823;-84
2021/04/09 12:01:44;;;;;;;27.90;3.27;;;15.60;1.00;;;;;;4957387;28;20456;-83
2021/04/09 12:04:36;;;;;;;26.37;3.13;;;15.20;1.00;;;;;;4957015;28;20851;-83
2021/04/09 12:07:10;;;;;;;30.17;5.53;;;14.90;1.00;;;;;;4955783;28;20462;-83
2021/04/09 12:09:39;;;;;;;29.03;3.67;;;15.00;1.00;;;;;;4956898;28;20472;-82
2021/04/09 12:12:06;;;;;;;27.10;3.00;;;15.30;1.00;;;;;;4957100;28;20846;-82
2021/04/09 12:14:41;;;;;;;31.10;3.50;;;15.30;1.00;;;;;;4956815;28;20459;-82
2021/04/09 12:17:10;;;;;;;25.17;2.30;;;15.70;1.00;;;;;;4957227;28;20496;-82
2021/04/09 12:19:39;;;;;;;26.10;3.23;;;15.60;1.00;;;;;;4956796;28;20487;-82
2021/04/09 12:22:09;;;;;;;29.03;3.83;;;16.00;1.00;;;;;;4955732;28;20483;-82
2021/04/09 12:24:39;;;;;;;30.07;3.80;;;16.40;1.00;;;;;;4956711;28;20883;-83
2021/04/09 12:27:06;;;;;;;27.47;3.20;;;16.40;1.00;;;;;;4955652;28;20491;-83
2021/04/09 12:29:35;;;;;;;30.37;3.37;;;16.20;1.00;;;;;;4956179;28;20484;-83
2021/04/09 12:32:03;;;;;;;54.23;5.07;;;15.80;1.00;;;;;;4956646;28;20470;-82
2021/04/09 12:34:31;;;;;;;41.83;5.30;;;16.20;1.00;;;;;;4956552;28;20471;-83
2021/04/09 12:36:57;;;;;;;28.10;3.40;;;16.10;1.00;;;;;;4955405;28;20460;-83
2021/04/09 12:39:25;;;;;;;28.97;3.80;;;16.40;1.00;;;;;;4956609;28;20463;-83
2021/04/09 12:41:55;;;;;;;29.73;3.13;;;16.90;1.00;;;;;;4956466;28;20828;-83
2021/04/09 12:44:22;;;;;;;33.40;3.97;;;17.30;1.00;;;;;;4956587;28;20575;-82
2021/04/09 12:47:06;;;;;;;33.70;3.00;;;17.80;1.00;;;;;;4956421;28;20459;-83
2021/04/09 12:49:33;;;;;;;31.47;6.20;;;17.50;1.00;;;;;;4956352;28;20451;-83
2021/04/09 12:52:01;;;;;;;31.10;3.00;;;17.40;1.00;;;;;;4955028;28;20458;-83
2021/04/09 12:54:27;;;;;;;34.17;3.60;;;18.00;1.00;;;;;;4957280;28;20456;-83
2021/04/09 12:56:56;;;;;;;33.40;3.23;;;18.40;1.00;;;;;;4956275;28;20491;-83
2021/04/09 12:59:23;;;;;;;33.87;3.47;;;18.30;1.00;;;;;;4956152;28;20989;-83
2021/04/09 13:01:53;;;;;;;37.10;3.90;;;17.90;1.00;;;;;;4956169;28;20468;-83
2021/04/09 13:04:22;;;;;;;32.60;3.10;;;17.70;1.00;;;;;;4956074;28;20482;-83
2021/04/09 13:06:52;;;;;;;34.77;3.83;;;17.80;1.00;;;;;;4954888;28;20460;-82
2021/04/09 13:09:23;;;;;;;32.97;2.90;;;18.20;1.00;;;;;;4956031;28;20487;-83
2021/04/09 13:11:49;;;;;;;37.03;5.23;;;18.40;1.00;;;;;;4955792;28;20543;-83
2021/04/09 13:14:15;;;;;;;34.97;3.63;;;17.50;1.00;;;;;;4955892;28;20470;-83
2021/04/09 13:16:42;;;;;;;36.23;3.87;;;16.40;1.00;;;;;;4955867;28;20459;-83
2021/04/09 13:19:09;;;;;;;33.13;4.10;;;17.00;1.00;;;;;;4955761;28;20456;-82
2021/04/09 13:22:06;;;;;;;31.33;4.17;;;17.20;1.00;;;;;;4954463;28;20818;-83
2021/04/09 13:24:33;;;;;;;30.37;2.80;;;17.90;1.00;;;;;;4952228;28;20948;-83
2021/04/09 13:27:00;;;;;;;33.60;3.83;;;17.20;1.00;;;;;;4955281;28;20519;-83
2021/04/09 13:29:26;;;;;;;31.80;3.20;;;17.70;1.00;;;;;;4955735;28;20843;-83
2021/04/09 13:32:11;;;;;;;32.77;3.67;;;17.90;1.00;;;;;;4955517;28;20451;-83
2021/04/09 13:34:37;;;;;;;32.90;3.28;;;18.00;1.00;;;;;;4954933;28;20466;-84
2021/04/09 13:40:18;;;;;;;;;;;;;;;;;;;;;
2021/04/09 13:42:52;;;;;;;31.97;2.87;;;18.10;1.00;;;;;;4931789;28;20455;-84